Time;durP1;ratioP1;P1;durP2;ratioP2;P2;SDS_P1;SDS_P2;PMS_P1;PMS_P2;Temp;Humidity;BMP_temperature;BMP_pressure;BME280_temperature;BME280_humidity;BME280_pressure;Samples;Min_cycle;Max_cycle;Signal;HPM_P1;HPM_P2
2023/06/18 00:02:25;0.00;0.00;0.62;0.00;0.00;0.62;8.70;7.83;;;32.00;22.40;;;;;;2259951;61;20415;-64
2023/06/18 00:05:11;0.00;0.00;0.62;0.00;0.00;0.62;7.93;7.33;;;32.00;22.40;;;;;;2260109;61;20503;-63
2023/06/18 00:07:56;0.00;0.00;0.62;0.00;0.00;0.62;9.23;8.40;;;31.90;22.30;;;;;;2259970;61;20368;-63
2023/06/18 00:10:41;0.00;0.00;0.62;0.00;0.00;0.62;8.43;7.73;;;31.90;22.90;;;;;;2259842;61;20956;-63
2023/06/18 00:13:25;0.00;0.00;0.62;0.00;0.00;0.62;7.90;7.20;;;32.00;22.40;;;;;;2260018;61;20361;-63
2023/06/18 00:16:11;0.00;0.00;0.62;0.00;0.00;0.62;8.73;7.93;;;32.00;22.40;;;;;;2259820;61;20376;-63
2023/06/18 00:18:56;0.00;0.00;0.62;0.00;0.00;0.62;10.30;9.30;;;31.90;22.40;;;;;;2259475;61;20474;-64
2023/06/18 00:21:42;0.00;0.00;0.62;0.00;0.00;0.62;8.37;7.67;;;31.90;22.40;;;;;;2260100;61;20465;-63
2023/06/18 00:24:26;0.00;0.00;0.62;0.00;0.00;0.62;8.17;7.47;;;31.90;22.40;;;;;;2259637;61;20420;-63
2023/06/18 00:27:11;0.00;0.00;0.62;0.00;0.00;0.62;8.90;7.97;;;31.90;22.40;;;;;;2259354;61;20387;-63
2023/06/18 00:29:56;0.00;0.00;0.62;0.00;0.00;0.62;8.33;7.53;;;31.90;22.40;;;;;;2259234;61;20935;-63
2023/06/18 00:32:43;0.00;0.00;0.62;0.00;0.00;0.62;9.67;8.70;;;31.90;22.40;;;;;;2260145;61;20368;-63
2023/06/18 00:35:30;0.00;0.00;0.62;0.00;0.00;0.62;8.90;8.10;;;31.90;22.50;;;;;;2260240;61;20377;-63
2023/06/18 00:38:16;0.00;0.00;0.62;0.00;0.00;0.62;8.57;7.87;;;31.90;22.50;;;;;;2259352;61;20919;-63
2023/06/18 00:41:02;0.00;0.00;0.62;0.00;0.00;0.62;8.80;8.10;;;31.90;22.50;;;;;;2259616;61;20442;-64
2023/06/18 00:43:46;0.00;0.00;0.62;0.00;0.00;0.62;8.53;7.73;;;31.90;22.50;;;;;;2259955;61;20463;-64
2023/06/18 00:46:35;0.00;0.00;0.62;0.00;0.00;0.62;8.63;7.83;;;31.90;22.50;;;;;;2259804;61;20887;-64
2023/06/18 00:49:20;0.00;0.00;0.62;0.00;0.00;0.62;8.90;8.10;;;31.90;22.50;;;;;;2259459;61;20389;-63
2023/06/18 00:52:06;0.00;0.00;0.62;0.00;0.00;0.62;9.20;8.40;;;31.90;22.50;;;;;;2259289;61;20408;-62
2023/06/18 00:54:53;0.00;0.00;0.62;0.00;0.00;0.62;8.77;7.10;;;31.90;22.50;;;;;;2260053;61;20365;-62
2023/06/18 00:57:39;0.00;0.00;0.62;0.00;0.00;0.62;10.07;8.63;;;31.80;22.50;;;;;;2259538;61;20397;-64
2023/06/18 01:00:24;0.00;0.00;0.62;0.00;0.00;0.62;9.70;8.90;;;31.80;22.50;;;;;;2259335;61;20388;-64
2023/06/18 01:03:15;0.00;0.00;0.62;0.00;0.00;0.62;9.90;9.00;;;31.80;22.50;;;;;;2259626;61;20402;-64
2023/06/18 01:06:01;0.00;0.00;0.62;0.00;0.00;0.62;8.47;7.67;;;31.80;22.50;;;;;;2260054;61;20412;-64
2023/06/18 01:08:48;0.00;0.00;0.62;0.00;0.00;0.62;9.00;8.20;;;31.80;22.50;;;;;;2258988;61;20380;-64
2023/06/18 01:11:40;0.00;0.00;0.62;0.00;0.00;0.62;8.60;7.90;;;31.80;22.50;;;;;;2259406;61;20369;-64
2023/06/18 01:14:28;0.00;0.00;0.62;0.00;0.00;0.62;8.40;7.70;;;31.80;22.60;;;;;;2259646;61;20365;-63
2023/06/18 01:17:12;0.00;0.00;0.62;0.00;0.00;0.62;9.73;9.03;;;31.80;22.50;;;;;;2259826;61;20395;-63
2023/06/18 01:20:08;0.00;0.00;0.62;0.00;0.00;0.62;8.80;7.97;;;31.80;22.50;;;;;;2259488;61;20392;-63
2023/06/18 01:23:01;0.00;0.00;0.62;0.00;0.00;0.62;9.20;8.30;;;31.80;22.50;;;;;;2259718;61;20438;-64
2023/06/18 01:25:48;0.00;0.00;0.62;0.00;0.00;0.62;9.30;8.50;;;31.80;22.50;;;;;;2259689;61;20788;-64
2023/06/18 01:28:35;0.00;0.00;0.62;0.00;0.00;0.62;9.03;8.33;;;31.70;22.50;;;;;;2259061;61;20469;-64
2023/06/18 01:31:21;0.00;0.00;0.62;0.00;0.00;0.62;9.50;8.70;;;31.80;22.60;;;;;;2255495;61;20907;-64
2023/06/18 01:34:07;0.00;0.00;0.62;0.00;0.00;0.62;9.33;8.53;;;31.80;22.60;;;;;;2255785;61;20786;-64
2023/06/18 01:37:05;0.00;0.00;0.62;0.00;0.00;0.62;8.77;7.97;;;31.70;22.50;;;;;;2255681;61;20372;-63
2023/06/18 01:40:00;0.00;0.00;0.62;0.00;0.00;0.62;9.13;8.33;;;31.70;22.50;;;;;;2254870;61;20864;-63
2023/06/18 01:42:54;0.00;0.00;0.62;0.00;0.00;0.62;9.07;8.27;;;31.70;22.50;;;;;;2255956;61;20369;-64
2023/06/18 01:45:47;0.00;0.00;0.62;0.00;0.00;0.62;9.30;8.50;;;31.70;22.50;;;;;;2255907;61;20446;-64
2023/06/18 01:48:35;0.00;0.00;0.62;0.00;0.00;0.62;9.60;8.80;;;31.70;22.50;;;;;;2255427;61;20374;-67
2023/06/18 01:51:22;0.00;0.00;0.62;0.00;0.00;0.62;9.37;8.57;;;31.70;22.50;;;;;;2256436;61;20362;-64
2023/06/18 01:54:08;0.00;0.00;0.62;0.00;0.00;0.62;8.40;7.70;;;31.70;22.50;;;;;;2256689;61;20907;-61
2023/06/18 01:56:53;0.00;0.00;0.62;0.00;0.00;0.62;7.63;7.03;;;31.70;22.60;;;;;;2256660;61;20782;-64
2023/06/18 01:59:41;0.00;0.00;0.62;0.00;0.00;0.62;8.70;7.93;;;31.70;22.60;;;;;;2255277;61;20468;-64
2023/06/18 02:02:27;0.00;0.00;0.62;0.00;0.00;0.62;9.07;8.27;;;31.70;22.60;;;;;;2255679;61;20521;-63
2023/06/18 02:05:12;0.00;0.00;0.62;0.00;0.00;0.62;9.30;8.60;;;31.70;22.60;;;;;;2256549;61;20404;-62
2023/06/18 02:07:56;0.00;0.00;0.62;0.00;0.00;0.62;10.10;9.30;;;31.70;22.60;;;;;;2256421;61;20381;-63
2023/06/18 02:10:41;0.00;0.00;0.62;0.00;0.00;0.62;8.30;7.60;;;31.70;23.20;;;;;;2255535;61;20386;-63
2023/06/18 02:13:26;0.00;0.00;0.62;0.00;0.00;0.62;7.90;7.30;;;31.70;22.60;;;;;;2256237;61;20420;-64
2023/06/18 02:16:11;0.00;0.00;0.62;0.00;0.00;0.62;8.73;8.00;;;31.70;22.60;;;;;;2258039;61;20400;-64
2023/06/18 02:19:29;0.00;0.00;0.62;0.00;0.00;0.62;9.43;8.53;;;31.70;22.60;;;;;;2302943;48;20362;-63
2023/06/18 02:22:15;0.00;0.00;0.62;0.00;0.00;0.62;8.90;8.17;;;31.60;22.60;;;;;;2257663;61;20524;-64
2023/06/18 02:25:01;0.00;0.00;0.62;0.00;0.00;0.62;9.20;8.40;;;31.60;22.60;;;;;;2255874;61;20393;-64
2023/06/18 02:27:53;0.00;0.00;0.62;0.00;0.00;0.62;8.30;7.50;;;31.60;22.60;;;;;;2256438;61;20365;-64
2023/06/18 02:30:38;0.00;0.00;0.62;0.00;0.00;0.62;8.83;8.03;;;31.60;22.60;;;;;;2263323;61;20400;-64
2023/06/18 02:33:22;0.00;0.00;0.62;0.00;0.00;0.62;8.13;7.33;;;31.60;22.60;;;;;;2263933;61;20410;-64
2023/06/18 02:36:10;0.00;0.00;0.62;0.00;0.00;0.62;7.77;7.07;;;31.60;22.60;;;;;;2264366;61;20368;-63
2023/06/18 02:38:57;0.00;0.00;0.62;0.00;0.00;0.62;8.50;7.80;;;31.60;22.60;;;;;;2263082;61;20445;-64
2023/06/18 02:41:42;0.00;0.00;0.62;0.00;0.00;0.62;8.70;7.90;;;31.60;22.60;;;;;;2264167;61;20403;-66
2023/06/18 02:44:28;0.00;0.00;0.62;0.00;0.00;0.62;8.53;7.73;;;31.60;22.60;;;;;;2263703;61;20388;-64
2023/06/18 02:47:13;0.00;0.00;0.62;0.00;0.00;0.62;9.57;8.77;;;31.60;22.60;;;;;;2264404;61;20425;-63
2023/06/18 02:49:58;0.00;0.00;0.62;0.00;0.00;0.62;9.10;8.33;;;31.50;22.50;;;;;;2263253;61;20392;-64
2023/06/18 02:52:46;0.00;0.00;0.62;0.00;0.00;0.62;9.33;8.53;;;31.60;22.60;;;;;;2264539;61;20364;-69
2023/06/18 02:55:31;0.00;0.00;0.62;0.00;0.00;0.62;8.63;7.93;;;31.50;22.60;;;;;;2263852;61;21040;-64
2023/06/18 02:58:17;0.00;0.00;0.62;0.00;0.00;0.62;8.37;7.67;;;31.50;22.50;;;;;;2263860;61;20368;-63
2023/06/18 03:01:02;0.00;0.00;0.62;0.00;0.00;0.62;8.73;7.93;;;31.50;22.50;;;;;;2263337;61;20392;-63
2023/06/18 03:03:53;0.00;0.00;0.62;0.00;0.00;0.62;8.83;8.13;;;31.50;22.60;;;;;;2264212;61;20410;-69
2023/06/18 03:06:40;0.00;0.00;0.62;0.00;0.00;0.62;9.00;8.20;;;31.50;22.60;;;;;;2263457;61;20360;-64
2023/06/18 03:09:27;0.00;0.00;0.62;0.00;0.00;0.62;8.60;7.90;;;31.50;22.60;;;;;;2263385;61;20388;-63
2023/06/18 03:12:13;0.00;0.00;0.62;0.00;0.00;0.62;8.70;8.00;;;31.50;22.60;;;;;;2264030;61;20826;-63
2023/06/18 03:14:58;0.00;0.00;0.62;0.00;0.00;0.62;8.50;7.80;;;31.50;22.60;;;;;;2263847;61;20388;-64
2023/06/18 03:17:44;0.00;0.00;0.62;0.00;0.00;0.62;8.83;8.13;;;31.50;22.60;;;;;;2656609;45;20366;-63
2023/06/18 03:20:28;0.00;0.00;0.62;0.00;0.00;0.62;9.47;8.47;;;31.50;22.60;;;;;;2255290;61;20397;-66
2023/06/18 03:23:16;0.00;0.00;0.62;0.00;0.00;0.62;9.27;8.47;;;31.50;22.70;;;;;;2255406;61;20492;-64
2023/06/18 03:26:07;0.00;0.00;0.62;0.00;0.00;0.62;7.93;7.23;;;31.50;22.70;;;;;;2255868;61;20390;-64
2023/06/18 03:28:53;0.00;0.00;0.62;0.00;0.00;0.62;8.10;7.40;;;31.50;22.70;;;;;;2255863;61;20435;-64
2023/06/18 03:31:41;0.00;0.00;0.62;0.00;0.00;0.62;8.13;7.43;;;31.50;22.70;;;;;;2264073;61;20359;-63
2023/06/18 03:34:29;0.00;0.00;0.62;0.00;0.00;0.62;8.13;7.43;;;31.50;22.70;;;;;;2263701;61;20539;-64
2023/06/18 03:37:16;0.00;0.00;0.62;0.00;0.00;0.62;8.10;7.50;;;31.40;22.60;;;;;;2263949;61;20364;-64
2023/06/18 03:40:06;0.00;0.00;0.62;0.00;0.00;0.62;8.80;8.10;;;31.40;22.60;;;;;;2262987;61;20929;-64
2023/06/18 03:42:53;0.00;0.00;0.62;0.00;0.00;0.62;7.87;7.27;;;31.40;22.60;;;;;;2263370;61;20360;-63
2023/06/18 03:45:41;0.00;0.00;0.62;0.00;0.00;0.62;7.87;7.17;;;31.40;22.70;;;;;;2263659;61;20877;-63
2023/06/18 03:48:26;0.00;0.00;0.62;0.00;0.00;0.62;7.43;6.83;;;31.40;22.70;;;;;;2263526;61;20752;-63
2023/06/18 03:51:10;0.00;0.00;0.62;0.00;0.00;0.62;8.03;7.40;;;31.40;22.70;;;;;;2263418;61;20360;-64
2023/06/18 03:53:56;0.00;0.00;0.62;0.00;0.00;0.62;8.73;8.03;;;31.40;22.70;;;;;;2264019;61;20437;-64
2023/06/18 03:56:41;0.00;0.00;0.62;0.00;0.00;0.62;7.97;7.30;;;31.40;22.70;;;;;;2263663;61;20649;-62
2023/06/18 03:59:29;0.00;0.00;0.62;0.00;0.00;0.62;7.93;7.20;;;31.40;22.70;;;;;;2263342;61;20936;-63
2023/06/18 04:02:15;0.00;0.00;0.62;0.00;0.00;0.62;8.60;7.90;;;31.40;22.70;;;;;;2263443;61;21028;-64
2023/06/18 04:05:02;0.00;0.00;0.62;0.00;0.00;0.62;8.13;7.43;;;31.40;22.70;;;;;;2263302;61;20411;-64
2023/06/18 04:07:48;0.00;0.00;0.62;0.00;0.00;0.62;7.73;7.03;;;31.40;22.80;;;;;;2260982;61;20396;-64
2023/06/18 04:10:35;0.00;0.00;0.62;0.00;0.00;0.62;8.90;8.10;;;31.40;23.30;;;;;;2263436;61;20434;-61
2023/06/18 04:13:22;0.00;0.00;0.62;0.00;0.00;0.62;8.33;7.63;;;31.40;23.30;;;;;;2263398;61;20677;-61
2023/06/18 04:16:10;0.00;0.00;0.62;0.00;0.00;0.62;7.47;6.87;;;31.30;22.70;;;;;;2262031;61;20392;-62
2023/06/18 04:18:55;0.00;0.00;0.62;0.00;0.00;0.62;7.77;7.17;;;31.40;22.80;;;;;;2259239;61;20873;-62
2023/06/18 04:21:40;0.00;0.00;0.62;0.00;0.00;0.62;7.70;7.10;;;31.30;22.80;;;;;;2259605;61;20922;-61
2023/06/18 04:24:25;0.00;0.00;0.62;0.00;0.00;0.62;8.97;8.07;;;31.30;22.80;;;;;;2259633;61;20365;-62
2023/06/18 04:27:11;0.00;0.00;0.62;0.00;0.00;0.62;7.80;7.10;;;31.30;22.80;;;;;;2259728;61;20457;-62
2023/06/18 04:29:56;0.00;0.00;0.62;0.00;0.00;0.62;7.77;7.07;;;31.30;22.80;;;;;;2261439;61;20442;-62
2023/06/18 04:32:43;0.00;0.00;0.62;0.00;0.00;0.62;8.00;7.30;;;31.30;22.80;;;;;;2263938;61;20356;-63
2023/06/18 04:35:29;0.00;0.00;0.62;0.00;0.00;0.62;8.43;7.80;;;31.30;22.90;;;;;;2263678;61;20376;-61
2023/06/18 04:38:14;0.00;0.00;0.62;0.00;0.00;0.62;7.87;7.23;;;31.30;22.90;;;;;;2263177;61;20407;-62
2023/06/18 04:41:01;0.00;0.00;0.62;0.00;0.00;0.62;7.63;7.03;;;31.30;22.90;;;;;;2263649;61;20433;-61
2023/06/18 04:43:47;0.00;0.00;0.62;0.00;0.00;0.62;6.70;6.20;;;31.30;22.90;;;;;;2263705;61;20434;-61
2023/06/18 04:46:33;0.00;0.00;0.62;0.00;0.00;0.62;7.90;7.20;;;31.30;22.90;;;;;;2263701;61;20514;-62
2023/06/18 04:49:20;0.00;0.00;0.62;0.00;0.00;0.62;7.40;6.80;;;31.30;22.90;;;;;;2262861;61;20392;-62
2023/06/18 04:52:07;0.00;0.00;0.62;0.00;0.00;0.62;7.47;6.87;;;31.30;22.90;;;;;;2263728;61;21341;-62
2023/06/18 04:54:53;0.00;0.00;0.62;0.00;0.00;0.62;7.77;7.17;;;31.30;22.90;;;;;;2263797;61;20411;-62
2023/06/18 04:57:40;0.00;0.00;0.62;0.00;0.00;0.62;8.23;7.53;;;31.30;22.90;;;;;;2263327;61;20364;-62
2023/06/18 05:00:26;0.00;0.00;0.62;0.00;0.00;0.62;7.37;6.77;;;31.30;22.90;;;;;;2263089;61;20379;-62
2023/06/18 05:03:13;0.00;0.00;0.62;0.00;0.00;0.62;8.63;7.93;;;31.30;22.90;;;;;;2263651;61;20394;-62
2023/06/18 05:06:00;0.00;0.00;0.62;0.00;0.00;0.62;8.03;7.33;;;31.30;22.90;;;;;;2264328;61;20376;-62
2023/06/18 05:08:47;0.00;0.00;0.62;0.00;0.00;0.62;7.60;7.00;;;31.30;22.90;;;;;;2263148;61;20421;-62
2023/06/18 05:11:32;0.00;0.00;0.62;0.00;0.00;0.62;8.47;7.77;;;31.30;22.90;;;;;;2263255;61;20391;-62
2023/06/18 05:14:18;0.00;0.00;0.62;0.00;0.00;0.62;8.13;7.53;;;31.30;23.00;;;;;;2263632;61;20954;-62
2023/06/18 05:17:02;0.00;0.00;0.62;0.00;0.00;0.62;7.90;7.20;;;31.30;22.90;;;;;;2261074;61;20879;-62
2023/06/18 05:19:48;0.00;0.00;0.62;0.00;0.00;0.62;8.30;7.60;;;31.30;23.00;;;;;;2259385;61;20435;-61
2023/06/18 05:22:35;0.00;0.00;0.62;0.00;0.00;0.62;7.53;6.93;;;31.30;23.00;;;;;;2260029;61;20388;-62
2023/06/18 05:25:20;0.00;0.00;0.62;0.00;0.00;0.62;8.10;7.40;;;31.30;22.90;;;;;;2260164;61;20454;-62
2023/06/18 05:28:05;0.00;0.00;0.62;0.00;0.00;0.62;7.63;7.03;;;31.30;22.90;;;;;;2260480;61;20411;-61
2023/06/18 05:30:53;0.00;0.00;0.62;0.00;0.00;0.62;6.67;6.17;;;31.30;23.00;;;;;;2263952;61;20375;-62
2023/06/18 05:33:38;0.00;0.00;0.62;0.00;0.00;0.62;7.00;6.40;;;31.30;23.00;;;;;;2264046;61;20379;-62
2023/06/18 05:36:25;0.00;0.00;0.62;0.00;0.00;0.62;7.33;6.77;;;31.30;23.00;;;;;;2264118;61;20363;-62
2023/06/18 05:39:11;0.00;0.00;0.62;0.00;0.00;0.62;7.63;7.03;;;31.30;22.90;;;;;;2263791;61;20387;-62
2023/06/18 05:41:57;0.00;0.00;0.62;0.00;0.00;0.62;7.90;7.20;;;31.30;22.90;;;;;;2263949;61;20484;-62
2023/06/18 05:44:44;0.00;0.00;0.62;0.00;0.00;0.62;7.37;6.70;;;31.30;23.00;;;;;;2264310;61;20411;-62
2023/06/18 05:47:29;0.00;0.00;0.62;0.00;0.00;0.62;7.63;6.93;;;31.30;23.00;;;;;;2264128;61;20368;-62
2023/06/18 05:50:16;0.00;0.00;0.62;0.00;0.00;0.62;7.07;6.47;;;31.30;23.00;;;;;;2263918;61;20399;-62
2023/06/18 05:53:01;0.00;0.00;0.62;0.00;0.00;0.62;7.17;6.47;;;31.30;22.90;;;;;;2264645;61;20360;-61
2023/06/18 05:55:47;0.00;0.00;0.62;0.00;0.00;0.62;7.20;6.60;;;31.30;23.00;;;;;;2264079;61;20917;-62
2023/06/18 05:58:32;0.00;0.00;0.62;0.00;0.00;0.62;6.73;6.13;;;31.30;23.00;;;;;;2263854;61;20905;-61
2023/06/18 06:01:17;0.00;0.00;0.62;0.00;0.00;0.62;7.30;6.80;;;31.30;23.00;;;;;;2264227;61;20464;-62
2023/06/18 06:04:03;0.00;0.00;0.62;0.00;0.00;0.62;6.67;6.17;;;31.30;23.00;;;;;;2264322;61;20790;-62
2023/06/18 06:06:48;0.00;0.00;0.62;0.00;0.00;0.62;7.27;6.57;;;31.30;23.00;;;;;;2264124;61;20387;-62
2023/06/18 06:09:34;0.00;0.00;0.62;0.00;0.00;0.62;7.40;6.70;;;31.30;23.00;;;;;;2263691;61;20496;-62
2023/06/18 06:12:21;0.00;0.00;0.62;0.00;0.00;0.62;6.93;6.33;;;31.30;23.00;;;;;;2263928;61;20368;-62
2023/06/18 06:15:09;0.00;0.00;0.62;0.00;0.00;0.62;6.50;6.00;;;31.30;23.00;;;;;;2261311;61;20418;-62
2023/06/18 06:17:54;0.00;0.00;0.62;0.00;0.00;0.62;7.07;6.47;;;31.30;23.00;;;;;;2550059;45;20358;-62
2023/06/18 06:20:38;0.00;0.00;0.62;0.00;0.00;0.62;7.40;6.70;;;31.30;23.00;;;;;;2258407;61;20385;-61
2023/06/18 06:23:24;0.00;0.00;0.62;0.00;0.00;0.62;7.23;6.57;;;31.30;23.60;;;;;;2256243;61;20431;-61
2023/06/18 06:26:09;0.00;0.00;0.62;0.00;0.00;0.62;7.73;7.03;;;31.30;23.00;;;;;;2256282;61;20369;-62
2023/06/18 06:28:56;0.00;0.00;0.62;0.00;0.00;0.62;7.10;6.50;;;31.30;23.00;;;;;;2259129;61;20386;-61
2023/06/18 06:31:41;0.00;0.00;0.62;0.00;0.00;0.62;6.43;5.83;;;31.30;23.00;;;;;;2264135;61;20443;-61
2023/06/18 06:34:26;0.00;0.00;0.62;0.00;0.00;0.62;6.20;5.70;;;31.30;23.00;;;;;;2264197;61;20375;-62
2023/06/18 06:37:11;0.00;0.00;0.62;0.00;0.00;0.62;7.53;6.83;;;31.30;23.00;;;;;;2263997;61;20371;-64
2023/06/18 06:39:57;0.00;0.00;0.62;0.00;0.00;0.62;7.13;6.50;;;31.30;23.00;;;;;;2263302;61;20411;-65
2023/06/18 06:42:42;0.00;0.00;0.62;0.00;0.00;0.62;6.77;6.17;;;31.30;23.00;;;;;;2263805;61;20911;-60
2023/06/18 06:45:50;0.00;0.00;0.62;0.00;0.00;0.62;6.60;6.10;;;31.30;23.00;;;;;;2264182;61;20391;-62
2023/06/18 06:48:54;0.00;0.00;0.62;0.00;0.00;0.62;6.90;6.30;;;31.30;23.00;;;;;;2263378;61;20407;-63
2023/06/18 06:51:55;0.00;0.00;0.62;0.00;0.00;0.62;7.00;6.40;;;31.30;23.00;;;;;;2263934;61;20407;-62
2023/06/18 06:54:40;0.00;0.00;0.62;0.00;0.00;0.62;7.07;6.47;;;31.30;23.00;;;;;;2263625;61;20407;-62
2023/06/18 06:57:24;0.00;0.00;0.62;0.00;0.00;0.62;6.63;6.10;;;31.30;23.00;;;;;;2264093;61;20363;-60
2023/06/18 07:00:11;0.00;0.00;0.62;0.00;0.00;0.62;6.57;5.97;;;31.30;23.00;;;;;;2263775;61;20756;-62
2023/06/18 07:02:57;0.00;0.00;0.62;0.00;0.00;0.62;6.73;6.13;;;31.30;23.00;;;;;;2263511;61;20983;-62
2023/06/18 07:05:43;0.00;0.00;0.62;0.00;0.00;0.62;6.63;6.03;;;31.30;23.00;;;;;;2264018;61;20368;-62
2023/06/18 07:08:28;0.00;0.00;0.62;0.00;0.00;0.62;6.83;6.23;;;31.30;23.00;;;;;;2264238;61;20361;-62
2023/06/18 07:11:12;0.00;0.00;0.62;0.00;0.00;0.62;6.60;6.00;;;31.30;23.00;;;;;;2264088;61;20356;-62
2023/06/18 07:13:57;0.00;0.00;0.62;0.00;0.00;0.62;6.83;6.30;;;31.30;23.00;;;;;;2264424;61;20361;-62
2023/06/18 07:16:42;0.00;0.00;0.62;0.00;0.00;0.62;6.60;6.10;;;31.30;23.00;;;;;;2261060;61;20384;-62
2023/06/18 07:19:28;0.00;0.00;0.62;0.00;0.00;0.62;6.90;6.30;;;31.30;23.00;;;;;;2260092;61;20431;-62
2023/06/18 07:22:12;0.00;0.00;0.62;0.00;0.00;0.62;6.27;5.77;;;31.30;23.00;;;;;;2260309;61;20799;-62
2023/06/18 07:24:58;0.00;0.00;0.62;0.00;0.00;0.62;6.30;5.80;;;31.30;23.00;;;;;;2260350;61;20415;-62
2023/06/18 07:27:42;0.00;0.00;0.62;0.00;0.00;0.62;6.90;6.33;;;31.30;23.00;;;;;;2260010;61;20853;-62
2023/06/18 07:30:27;0.00;0.00;0.62;0.00;0.00;0.62;5.70;5.20;;;31.30;23.00;;;;;;2263265;61;20800;-62
2023/06/18 07:33:12;0.00;0.00;0.62;0.00;0.00;0.62;7.10;6.50;;;31.30;23.00;;;;;;2264035;61;20360;-61
2023/06/18 07:35:58;0.00;0.00;0.62;0.00;0.00;0.62;6.10;5.60;;;31.30;23.00;;;;;;2263710;61;20951;-62
2023/06/18 07:38:42;0.00;0.00;0.62;0.00;0.00;0.62;6.53;6.03;;;31.30;23.00;;;;;;2263625;61;20418;-60
2023/06/18 07:41:27;0.00;0.00;0.62;0.00;0.00;0.62;5.77;5.30;;;31.30;23.00;;;;;;2264064;61;20427;-62
2023/06/18 07:44:11;0.00;0.00;0.62;0.00;0.00;0.62;6.83;6.13;;;31.30;23.00;;;;;;2264559;61;20399;-62
2023/06/18 07:46:56;0.00;0.00;0.62;0.00;0.00;0.62;6.70;6.20;;;31.30;23.00;;;;;;2264140;61;20396;-62
2023/06/18 07:49:41;0.00;0.00;0.62;0.00;0.00;0.62;5.70;5.20;;;31.30;23.00;;;;;;2263562;61;20765;-62
2023/06/18 07:52:27;0.00;0.00;0.62;0.00;0.00;0.62;6.87;6.37;;;31.30;23.00;;;;;;2264458;61;20401;-62
2023/06/18 07:55:11;0.00;0.00;0.62;0.00;0.00;0.62;7.00;6.40;;;31.30;23.60;;;;;;2263960;61;20388;-62
2023/06/18 07:57:56;0.00;0.00;0.62;0.00;0.00;0.62;6.13;5.53;;;31.30;23.00;;;;;;2264103;61;20422;-62
2023/06/18 08:00:41;0.00;0.00;0.62;0.00;0.00;0.62;5.83;5.33;;;31.30;23.00;;;;;;2264094;61;20438;-62
2023/06/18 08:03:25;0.00;0.00;0.62;0.00;0.00;0.62;5.37;4.87;;;31.30;23.00;;;;;;2264477;61;20411;-62
2023/06/18 08:06:10;0.00;0.00;0.62;0.00;0.00;0.62;5.93;5.43;;;31.30;23.00;;;;;;2264114;61;20449;-64
2023/06/18 08:08:56;0.00;0.00;0.62;0.00;0.00;0.62;6.20;5.70;;;31.40;23.10;;;;;;2263422;61;20829;-64
2023/06/18 08:11:41;0.00;0.00;0.62;0.00;0.00;0.62;6.47;5.60;;;31.40;23.10;;;;;;2264129;61;20361;-63
2023/06/18 08:14:27;0.00;0.00;0.62;0.00;0.00;0.62;5.63;5.13;;;31.40;23.10;;;;;;2264200;61;20452;-64
2023/06/18 08:17:15;0.00;0.00;0.62;0.00;0.00;0.62;5.60;5.10;;;31.40;23.10;;;;;;2260180;61;20369;-64
2023/06/18 08:20:00;0.00;0.00;0.62;0.00;0.00;0.62;5.43;5.03;;;31.40;23.10;;;;;;2259504;61;20385;-63
2023/06/18 08:22:45;0.00;0.00;0.62;0.00;0.00;0.62;6.33;5.83;;;31.40;23.10;;;;;;2260196;61;20557;-63
2023/06/18 08:25:31;0.00;0.00;0.62;0.00;0.00;0.62;5.80;5.30;;;31.40;23.10;;;;;;2259924;61;20412;-64
2023/06/18 08:28:15;0.00;0.00;0.62;0.00;0.00;0.62;5.60;5.20;;;31.40;23.10;;;;;;2259594;61;20875;-63
2023/06/18 08:31:00;0.00;0.00;0.62;0.00;0.00;0.62;5.53;5.10;;;31.40;23.10;;;;;;2263858;61;20411;-64
2023/06/18 08:33:44;0.00;0.00;0.62;0.00;0.00;0.62;5.43;4.93;;;31.40;23.10;;;;;;2263812;61;20364;-64
2023/06/18 08:36:29;0.00;0.00;0.62;0.00;0.00;0.62;5.80;5.30;;;31.40;23.10;;;;;;2264182;61;20391;-63
2023/06/18 08:39:14;0.00;0.00;0.62;0.00;0.00;0.62;5.67;5.17;;;31.40;23.10;;;;;;2263349;61;20790;-64
2023/06/18 08:42:01;0.00;0.00;0.62;0.00;0.00;0.62;5.13;4.73;;;31.40;23.10;;;;;;2263613;61;20433;-64
2023/06/18 08:44:46;0.00;0.00;0.62;0.00;0.00;0.62;4.53;4.20;;;31.40;23.10;;;;;;2264351;61;20390;-64
2023/06/18 08:47:33;0.00;0.00;0.62;0.00;0.00;0.62;5.50;5.03;;;31.40;23.10;;;;;;2263873;61;20948;-64
2023/06/18 08:50:19;0.00;0.00;0.62;0.00;0.00;0.62;5.73;5.33;;;31.40;23.10;;;;;;2263221;61;20395;-63
2023/06/18 08:53:16;0.00;0.00;0.62;0.00;0.00;0.62;5.73;5.23;;;31.40;23.20;;;;;;2264459;61;20402;-64
2023/06/18 08:56:02;0.00;0.00;0.62;0.00;0.00;0.62;5.90;5.40;;;31.40;23.10;;;;;;2264342;61;20359;-63
2023/06/18 08:58:51;0.00;0.00;0.62;0.00;0.00;0.62;4.67;4.37;;;31.40;23.10;;;;;;2264326;61;20383;-64
2023/06/18 09:01:37;0.00;0.00;0.62;0.00;0.00;0.62;4.80;4.40;;;31.40;23.10;;;;;;2264446;61;20426;-69
2023/06/18 09:04:23;0.00;0.00;0.62;0.00;0.00;0.62;5.43;5.03;;;31.50;23.20;;;;;;2264348;61;20363;-64
2023/06/18 09:07:08;0.00;0.00;0.62;0.00;0.00;0.62;5.33;4.93;;;31.50;23.20;;;;;;2265159;61;20406;-63
2023/06/18 09:09:53;0.00;0.00;0.62;0.00;0.00;0.62;5.63;5.13;;;31.40;23.20;;;;;;2264367;61;20918;-64
2023/06/18 09:12:39;0.00;0.00;0.62;0.00;0.00;0.62;5.07;4.57;;;31.40;23.20;;;;;;2264884;61;20883;-64
2023/06/18 09:15:26;0.00;0.00;0.62;0.00;0.00;0.62;5.43;5.00;;;31.50;23.30;;;;;;2265528;61;20379;-63
2023/06/18 09:18:10;0.00;0.00;0.62;0.00;0.00;0.62;5.60;5.10;;;31.40;23.30;;;;;;2259931;61;20903;-64
2023/06/18 09:20:55;0.00;0.00;0.62;0.00;0.00;0.62;4.60;4.17;;;31.50;23.30;;;;;;2260748;61;20898;-64
2023/06/18 09:23:40;0.00;0.00;0.62;0.00;0.00;0.62;5.00;4.60;;;31.50;23.90;;;;;;2260252;61;20360;-63
2023/06/18 09:26:26;0.00;0.00;0.62;0.00;0.00;0.62;5.40;5.00;;;31.50;23.40;;;;;;2260479;61;20364;-62
2023/06/18 09:29:12;0.00;0.00;0.62;0.00;0.00;0.62;5.00;4.60;;;31.50;23.40;;;;;;2261327;61;20853;-63
2023/06/18 09:32:06;0.00;0.00;0.62;0.00;0.00;0.62;6.07;5.47;;;31.50;23.40;;;;;;2264683;61;20359;-65
2023/06/18 09:34:50;0.00;0.00;0.62;0.00;0.00;0.62;6.57;5.97;;;31.50;23.40;;;;;;2264920;61;20801;-63
2023/06/18 09:37:35;0.00;0.00;0.62;0.00;0.00;0.62;5.50;5.07;;;31.50;23.50;;;;;;2264609;61;20948;-63
2023/06/18 09:40:22;0.00;0.00;0.62;0.00;0.00;0.62;6.87;6.20;;;31.50;23.50;;;;;;2263883;61;20928;-63
2023/06/18 09:43:10;0.00;0.00;0.62;0.00;0.00;0.62;5.67;5.17;;;31.60;23.60;;;;;;2264546;61;20453;-64
2023/06/18 09:45:56;0.00;0.00;0.62;0.00;0.00;0.62;6.33;5.73;;;31.60;23.60;;;;;;2264251;61;20415;-64
2023/06/18 09:48:45;0.00;0.00;0.62;0.00;0.00;0.62;5.70;5.20;;;31.60;23.60;;;;;;2264030;61;20403;-65
2023/06/18 09:51:30;0.00;0.00;0.62;0.00;0.00;0.62;5.70;5.20;;;31.60;23.50;;;;;;2264456;61;20460;-64
2023/06/18 09:54:15;0.00;0.00;0.62;0.00;0.00;0.62;6.50;5.90;;;31.60;24.00;;;;;;2264289;61;20406;-64
2023/06/18 09:57:02;0.00;0.00;0.62;0.00;0.00;0.62;6.00;5.50;;;31.60;23.50;;;;;;2264258;61;20363;-65
2023/06/18 09:59:47;0.00;0.00;0.62;0.00;0.00;0.62;6.63;6.03;;;31.60;23.50;;;;;;2263859;61;20383;-65
2023/06/18 10:02:37;0.00;0.00;0.62;0.00;0.00;0.62;6.00;5.50;;;31.60;23.40;;;;;;2264294;61;20392;-65
2023/06/18 10:05:23;0.00;0.00;0.62;0.00;0.00;0.62;5.97;5.47;;;31.60;23.40;;;;;;2264661;61;20920;-65
2023/06/18 10:08:08;0.00;0.00;0.62;0.00;0.00;0.62;6.00;5.50;;;31.60;23.40;;;;;;2264329;61;20383;-65
2023/06/18 10:10:52;0.00;0.00;0.62;0.00;0.00;0.62;7.00;6.40;;;31.60;23.40;;;;;;2264439;61;20368;-64
2023/06/18 10:13:43;0.00;0.00;0.62;0.00;0.00;0.62;7.10;6.50;;;31.60;23.40;;;;;;2264180;61;20364;-65
2023/06/18 10:16:30;0.00;0.00;0.62;0.00;0.00;0.62;6.70;6.10;;;31.70;23.40;;;;;;2261990;61;20446;-65
2023/06/18 10:19:24;0.00;0.00;0.62;0.00;0.00;0.62;6.23;5.77;;;31.70;23.40;;;;;;2259379;61;20972;-64
2023/06/18 10:22:12;0.00;0.00;0.62;0.00;0.00;0.62;5.83;5.33;;;31.60;23.40;;;;;;2259931;61;20797;-64
2023/06/18 10:25:06;0.00;0.00;0.62;0.00;0.00;0.62;8.43;5.73;;;31.70;23.40;;;;;;2260417;61;20369;-65
2023/06/18 10:27:53;0.00;0.00;0.62;0.00;0.00;0.62;6.37;5.87;;;31.70;23.40;;;;;;2260299;61;20975;-64
2023/06/18 10:30:39;0.00;0.00;0.62;0.00;0.00;0.62;6.07;5.57;;;31.70;23.30;;;;;;2263307;61;20522;-65
2023/06/18 10:33:25;0.00;0.00;0.62;0.00;0.00;0.62;5.40;5.00;;;31.70;23.30;;;;;;2264259;61;20363;-65
2023/06/18 10:36:10;0.00;0.00;0.62;0.00;0.00;0.62;6.83;6.23;;;31.70;23.30;;;;;;2264295;61;20466;-67
2023/06/18 10:39:01;0.00;0.00;0.62;0.00;0.00;0.62;6.47;5.97;;;31.70;23.30;;;;;;2288085;55;20388;-65
2023/06/18 10:41:46;0.00;0.00;0.62;0.00;0.00;0.62;6.67;6.07;;;31.70;23.30;;;;;;2265399;61;20388;-65
2023/06/18 10:44:49;0.00;0.00;0.62;0.00;0.00;0.62;6.03;5.50;;;31.70;23.30;;;;;;2264197;61;20418;-65
2023/06/18 10:47:34;0.00;0.00;0.62;0.00;0.00;0.62;6.00;5.50;;;31.70;23.30;;;;;;2264241;61;20823;-65
2023/06/18 10:50:19;0.00;0.00;0.62;0.00;0.00;0.62;6.30;5.80;;;31.80;23.30;;;;;;2263867;61;20376;-64
2023/06/18 10:53:22;0.00;0.00;0.62;0.00;0.00;0.62;6.30;5.80;;;31.70;23.20;;;;;;2263982;61;20773;-64
2023/06/18 10:56:08;0.00;0.00;0.62;0.00;0.00;0.62;6.13;5.63;;;31.70;23.20;;;;;;2264092;61;20479;-65
2023/06/18 10:58:53;0.00;0.00;0.62;0.00;0.00;0.62;5.60;5.10;;;31.70;23.20;;;;;;2263768;61;20408;-65